createdAt,value
2022-12-23T05:07:00.473Z,6.65
2022-12-23T05:10:03.200Z,6.65
2022-12-23T05:13:05.343Z,6.13
2022-12-23T05:16:07.973Z,6.12
2022-12-23T05:19:10.617Z,6.17
2022-12-23T05:22:13.066Z,6.23
2022-12-23T05:25:15.271Z,6.16
2022-12-23T05:28:17.680Z,6.21
2022-12-23T05:31:19.814Z,6.26
2022-12-23T05:34:22.380Z,6.21
2022-12-23T05:37:24.482Z,6.11
2022-12-23T05:40:28.167Z,6.06
2022-12-23T05:43:35.361Z,6.19
2022-12-23T05:46:37.938Z,6.27
2022-12-23T05:49:40.129Z,6.12
2022-12-23T05:52:42.475Z,5.97
2022-12-23T05:55:44.614Z,5.97
2022-12-23T05:58:46.968Z,5.99
2022-12-23T06:01:49.801Z,6.01
2022-12-23T06:04:52.238Z,6.46
2022-12-23T06:07:54.576Z,6.36
2022-12-23T06:10:57.103Z,6.16
2022-12-23T06:13:59.182Z,6.28
2022-12-23T06:17:01.631Z,6.42
2022-12-23T06:20:04.787Z,6.29
2022-12-23T06:23:07.256Z,6.08
2022-12-23T06:26:09.389Z,6.11
2022-12-23T06:29:11.800Z,6.16
2022-12-23T06:32:14.309Z,6.08
2022-12-23T06:35:16.763Z,6.00
2022-12-23T06:38:18.902Z,6.08
2022-12-23T06:41:21.245Z,6.16
2022-12-23T06:44:23.392Z,6.12
2022-12-23T06:47:25.872Z,6.16
2022-12-23T06:50:27.970Z,6.11
2022-12-23T06:53:30.358Z,6.20
2022-12-23T06:56:35.295Z,6.04
2022-12-23T06:59:37.697Z,6.10
2022-12-23T07:02:39.994Z,6.23
2022-12-23T07:05:42.623Z,6.09
2022-12-23T07:08:44.718Z,6.05
2022-12-23T07:11:47.064Z,6.00
2022-12-23T07:14:49.650Z,6.04
2022-12-23T07:17:52.024Z,5.91
2022-12-23T07:20:54.337Z,6.00
2022-12-23T07:23:56.839Z,5.98
2022-12-23T07:26:58.948Z,5.94
2022-12-23T07:30:01.533Z,5.98
2022-12-23T07:33:03.774Z,5.96
2022-12-23T07:36:06.660Z,6.01
2022-12-23T07:39:08.776Z,6.04
2022-12-23T07:45:33.440Z,6.19
2022-12-23T07:48:36.262Z,6.03
2022-12-23T07:51:38.399Z,5.94
2022-12-23T07:54:40.846Z,5.97
2022-12-23T07:57:42.951Z,5.98
2022-12-23T08:00:45.302Z,5.96
2022-12-23T08:03:48.647Z,6.07
2022-12-23T08:06:50.803Z,6.07
2022-12-23T08:09:53.259Z,5.96
2022-12-23T08:12:55.569Z,6.28
2022-12-23T08:15:59.432Z,6.26
2022-12-23T08:19:01.646Z,6.46
2022-12-23T08:22:04.120Z,6.14
2022-12-23T08:25:06.863Z,6.16
2022-12-23T08:28:09.214Z,6.28
2022-12-23T08:31:17.630Z,6.38
2022-12-23T08:34:20.051Z,6.31
2022-12-23T08:37:22.262Z,6.15
2022-12-23T08:40:24.727Z,6.38
2022-12-23T08:43:33.571Z,6.43
2022-12-23T08:46:38.785Z,6.26
2022-12-23T08:49:41.001Z,6.33
2022-12-23T08:52:43.480Z,6.20
2022-12-23T08:55:47.624Z,6.11
2022-12-23T08:58:55.163Z,6.27
2022-12-23T09:01:59.668Z,6.51
2022-12-23T09:05:02.232Z,6.31
2022-12-23T09:08:04.593Z,6.30
2022-12-23T09:11:11.694Z,6.28
2022-12-23T09:14:13.936Z,6.22
2022-12-23T09:17:17.655Z,6.24
2022-12-23T09:20:19.791Z,6.17
2022-12-23T09:23:22.349Z,6.46
2022-12-23T09:26:27.447Z,6.23
2022-12-23T09:29:29.798Z,6.52
2022-12-23T09:32:31.954Z,6.51
2022-12-23T09:35:34.430Z,6.47
2022-12-23T09:38:36.723Z,6.44
2022-12-23T09:42:09.268Z,6.35
2022-12-23T09:45:40.149Z,6.26
2022-12-23T09:48:51.074Z,6.22
2022-12-23T09:52:00.138Z,6.18
2022-12-23T09:55:02.692Z,6.03
2022-12-23T09:58:19.719Z,6.00
2022-12-23T10:01:44.831Z,5.99
2022-12-23T10:05:09.027Z,6.42
2022-12-23T10:08:22.700Z,6.38
2022-12-23T10:11:31.956Z,6.12
2022-12-23T10:14:36.605Z,6.09
2022-12-23T10:17:41.734Z,6.12
2022-12-23T10:20:53.325Z,5.97
2022-12-23T10:23:55.999Z,6.19
2022-12-23T10:27:03.600Z,6.16
2022-12-23T10:30:42.684Z,6.17
2022-12-23T10:33:57.146Z,6.40
2022-12-23T10:37:22.115Z,6.22
2022-12-23T10:41:05.324Z,6.19
2022-12-23T10:44:38.583Z,6.09
2022-12-23T10:47:51.637Z,6.09
2022-12-23T10:51:01.241Z,6.12
2022-12-23T10:54:12.327Z,6.19
2022-12-23T10:57:17.273Z,6.17
2022-12-23T11:00:22.784Z,6.26
2022-12-23T11:03:36.535Z,6.22
2022-12-23T11:06:42.601Z,6.24
2022-12-23T11:10:18.789Z,6.45
2022-12-23T11:13:42.084Z,6.32
2022-12-23T11:16:47.352Z,6.27
2022-12-23T11:20:12.748Z,6.29
2022-12-23T11:23:36.583Z,6.24
2022-12-23T11:26:39.343Z,6.33
2022-12-23T11:29:54.463Z,6.73
2022-12-23T11:32:57.024Z,6.59
2022-12-23T11:36:00.782Z,6.85
2022-12-23T11:39:07.538Z,6.81
2022-12-23T11:42:17.796Z,6.68
2022-12-23T11:45:25.569Z,6.44
2022-12-23T11:48:30.592Z,6.49
2022-12-23T11:51:32.774Z,6.72
2022-12-23T11:54:35.194Z,6.66
2022-12-23T11:57:48.619Z,6.73
2022-12-23T12:00:58.132Z,6.66
2022-12-23T12:04:05.482Z,6.75
2022-12-23T12:07:13.059Z,6.94
2022-12-23T12:10:21.177Z,7.03
2022-12-23T12:13:30.545Z,7.18
2022-12-23T12:16:35.808Z,6.88
2022-12-23T12:19:48.439Z,6.75
2022-12-23T12:22:56.081Z,6.65
2022-12-23T12:26:06.129Z,6.73
2022-12-23T12:29:31.982Z,6.62
2022-12-23T12:32:46.687Z,6.62
2022-12-23T12:36:05.523Z,6.65
2022-12-23T12:39:19.302Z,6.57
2022-12-23T12:42:40.191Z,6.66
2022-12-23T12:45:50.972Z,6.77
2022-12-23T12:49:06.844Z,6.62
2022-12-23T12:52:38.931Z,6.76
2022-12-23T12:55:47.391Z,6.75
2022-12-23T12:58:50.252Z,6.71
2022-12-23T13:01:59.334Z,6.75
2022-12-23T13:05:24.452Z,6.86
2022-12-23T13:08:48.495Z,6.79
2022-12-23T13:12:28.872Z,6.74
2022-12-23T13:15:34.320Z,6.77
2022-12-23T13:18:42.126Z,6.83
2022-12-23T13:21:51.532Z,6.83
2022-12-23T13:25:14.415Z,6.91
2022-12-23T13:28:35.758Z,6.81
2022-12-23T13:31:51.439Z,6.78
2022-12-23T13:35:19.819Z,6.88
2022-12-23T13:39:05.889Z,6.84
2022-12-23T13:42:13.749Z,6.87
2022-12-23T13:45:18.730Z,6.87
2022-12-23T13:48:38.137Z,6.95
2022-12-23T13:51:59.072Z,6.95
2022-12-23T13:55:20.080Z,6.91
2022-12-23T13:58:26.021Z,6.86
2022-12-23T14:01:40.472Z,7.02
2022-12-23T14:04:55.336Z,7.39
2022-12-23T14:08:03.484Z,7.30
2022-12-23T14:11:17.059Z,7.10
2022-12-23T14:14:56.900Z,6.95
2022-12-23T14:18:29.778Z,7.03
2022-12-23T14:21:55.846Z,7.04
2022-12-23T14:25:19.940Z,7.13
2022-12-23T14:29:14.598Z,7.18
2022-12-23T14:32:27.071Z,7.22
2022-12-23T14:35:38.325Z,7.19
2022-12-23T14:39:13.602Z,7.29
2022-12-23T14:42:41.255Z,7.18
2022-12-23T14:45:44.121Z,7.03
2022-12-23T14:48:46.172Z,7.31
2022-12-23T14:51:50.870Z,7.33
2022-12-23T14:55:20.981Z,7.15
2022-12-23T14:58:18.611Z,7.16
2022-12-23T15:01:30.325Z,7.13
2022-12-23T15:04:44.162Z,7.05
2022-12-23T15:07:46.862Z,7.03
2022-12-23T15:10:49.882Z,7.09
2022-12-23T15:13:53.931Z,7.24
2022-12-23T15:16:56.395Z,7.14
2022-12-23T15:20:23.396Z,7.15
2022-12-23T15:23:26.099Z,6.97
2022-12-23T15:26:31.699Z,7.15
